Portada
METAR-TAF:

METAR-TAF

Aeroports :

Marsa Alam, Egipte

latitud: 25-33-25N, longitud: 34-35-01E, altitud: 77 m

Observació

L'informe es va fer fa 1 hora i 2 minuts, a les 06:00 UTC
Vent 10 kt del Nord-Oest
Temperatura 18°C
Humitat 34%
Pressió 1014 hPa
Visibilitat 10 km o més
sense núvols per sota de 1500 mi sense presència de cumulonimbus.

METAR: HEMA 310600Z 31010KT CAVOK 18/02 Q1014 NOSIG

Hora: 09:02 (07:02 UTC)

Pronòstic

L'informe es va fer fa 2 hores i 2 minuts, a les 05:00 UTC
Pronòstic vàlid del 31 a les 06 UTC al 01 a les 12 UTC
Vent 15 kt del Nord
Visibilitat 10 km o més
sense núvols per sota de 1500 mi sense presència de cumulonimbus.

TAF: HEMA 310500Z 3106/0112 36015KT CAVOK

Observacions i pronòstics meteorològics de més de 4000 aeroports (METAR i TAF).

Les estacions disponibles són els punts grocs i vermells al mapa.

Posi el ratolí al punt desitjat per veure el nom de l'estació.

Feu clic per veure les observacions i els pronòstics meteorològics.

Per canviar el mapa: feu clic els botons verds amb una creu de color negre per apropar; al botó verd amb un guió per allunyar la imatge; o en les fletxes verdes per a mapes adjacents.


METAR-TAF: